Fenwick, Michigan
Current Conditions -  °F | °C
As of 12:13 PM on Thursday 27 Nov 2014 (Local Time) from KY70 Reporting Station
Overcast Overcast  
Wind Chill: 23°   Ceiling: 2700
Heat Index: 31°   Visibility: 10mi
Dew Point: 24°   Wind: 8mph
Humidity: 76%   Direction: 350°N
Pressure: 30.17"   Gusts: NA
Location:  43.15°N, 85.08°W
Report Text: KY70 271713Z AUTO 35007KT 10SM SCT017 OVC027 M01/M04 A3017 RMK AO2 T10061043
Loading
Personal Weather Stations






























Interactive Weather Map New forecast layout! Learn more

10-Day Weather Forecast

Advertisements
Track Severe Weather on mobile